sensor_id;sensor_type;location;lat;lon;timestamp;temperature;humidity
79030;DHT22;68511;51.146;7.012;2023-11-19T00:00:54;15.20;61.60
79030;DHT22;68511;51.146;7.012;2023-11-19T00:01:54;15.20;61.60
79030;DHT22;68511;51.146;7.012;2023-11-19T00:02:55;15.20;61.60
79030;DHT22;68511;51.146;7.012;2023-11-19T00:03:55;15.20;61.60
79030;DHT22;68511;51.146;7.012;2023-11-19T00:04:56;15.20;61.60
79030;DHT22;68511;51.146;7.012;2023-11-19T00:05:56;15.20;61.60
79030;DHT22;68511;51.146;7.012;2023-11-19T00:06:57;15.20;61.60
79030;DHT22;68511;51.146;7.012;2023-11-19T00:08:02;15.20;61.60
79030;DHT22;68511;51.146;7.012;2023-11-19T00:09:03;15.20;61.60
79030;DHT22;68511;51.146;7.012;2023-11-19T00:10:04;15.20;61.70
79030;DHT22;68511;51.146;7.012;2023-11-19T00:11:07;15.20;61.70
79030;DHT22;68511;51.146;7.012;2023-11-19T00:12:07;15.20;61.60
79030;DHT22;68511;51.146;7.012;2023-11-19T00:13:09;15.20;61.70
79030;DHT22;68511;51.146;7.012;2023-11-19T00:14:11;15.20;61.70
79030;DHT22;68511;51.146;7.012;2023-11-19T00:15:13;15.20;61.60
79030;DHT22;68511;51.146;7.012;2023-11-19T00:16:13;15.20;61.60
79030;DHT22;68511;51.146;7.012;2023-11-19T00:17:14;15.20;61.60
79030;DHT22;68511;51.146;7.012;2023-11-19T00:18:14;15.20;61.60
79030;DHT22;68511;51.146;7.012;2023-11-19T00:19:16;15.20;61.60
79030;DHT22;68511;51.146;7.012;2023-11-19T00:20:17;15.20;61.60
79030;DHT22;68511;51.146;7.012;2023-11-19T00:21:18;15.20;61.60
79030;DHT22;68511;51.146;7.012;2023-11-19T00:22:18;15.20;61.70
79030;DHT22;68511;51.146;7.012;2023-11-19T00:23:21;15.20;61.70
79030;DHT22;68511;51.146;7.012;2023-11-19T00:24:23;15.20;61.80
79030;DHT22;68511;51.146;7.012;2023-11-19T00:25:23;15.20;61.70
79030;DHT22;68511;51.146;7.012;2023-11-19T00:26:24;15.20;61.80
79030;DHT22;68511;51.146;7.012;2023-11-19T00:27:25;15.20;61.80
79030;DHT22;68511;51.146;7.012;2023-11-19T00:28:25;15.20;61.80
79030;DHT22;68511;51.146;7.012;2023-11-19T00:29:26;15.20;61.70
79030;DHT22;68511;51.146;7.012;2023-11-19T00:30:26;15.20;61.80
79030;DHT22;68511;51.146;7.012;2023-11-19T00:31:26;15.20;61.70
79030;DHT22;68511;51.146;7.012;2023-11-19T00:32:28;15.20;61.70
79030;DHT22;68511;51.146;7.012;2023-11-19T00:33:29;15.20;61.70
79030;DHT22;68511;51.146;7.012;2023-11-19T00:34:31;15.20;61.80
79030;DHT22;68511;51.146;7.012;2023-11-19T00:35:31;15.20;61.70
79030;DHT22;68511;51.146;7.012;2023-11-19T00:36:33;15.20;61.80
79030;DHT22;68511;51.146;7.012;2023-11-19T00:37:33;15.20;61.70
79030;DHT22;68511;51.146;7.012;2023-11-19T00:38:34;15.20;61.70
79030;DHT22;68511;51.146;7.012;2023-11-19T00:39:34;15.20;61.80
79030;DHT22;68511;51.146;7.012;2023-11-19T00:40:35;15.20;61.70
79030;DHT22;68511;51.146;7.012;2023-11-19T00:41:36;15.20;61.70
79030;DHT22;68511;51.146;7.012;2023-11-19T00:42:36;15.20;61.80
79030;DHT22;68511;51.146;7.012;2023-11-19T00:43:36;15.20;61.70
79030;DHT22;68511;51.146;7.012;2023-11-19T00:44:37;15.20;61.70
79030;DHT22;68511;51.146;7.012;2023-11-19T00:45:37;15.20;61.70
79030;DHT22;68511;51.146;7.012;2023-11-19T00:46:38;15.20;61.70
79030;DHT22;68511;51.146;7.012;2023-11-19T00:47:38;15.20;61.70
79030;DHT22;68511;51.146;7.012;2023-11-19T00:48:39;15.20;61.70
79030;DHT22;68511;51.146;7.012;2023-11-19T00:49:40;15.20;61.70
79030;DHT22;68511;51.146;7.012;2023-11-19T00:50:40;15.20;61.70
79030;DHT22;68511;51.146;7.012;2023-11-19T00:51:44;15.20;61.80
79030;DHT22;68511;51.146;7.012;2023-11-19T00:52:45;15.20;61.80
79030;DHT22;68511;51.146;7.012;2023-11-19T00:53:47;15.20;61.80
79030;DHT22;68511;51.146;7.012;2023-11-19T00:54:47;15.20;61.80
79030;DHT22;68511;51.146;7.012;2023-11-19T00:55:48;15.20;61.80
79030;DHT22;68511;51.146;7.012;2023-11-19T00:56:48;15.20;61.80
79030;DHT22;68511;51.146;7.012;2023-11-19T00:57:49;15.20;61.90
79030;DHT22;68511;51.146;7.012;2023-11-19T00:58:49;15.20;61.80
79030;DHT22;68511;51.146;7.012;2023-11-19T00:59:50;15.20;61.80
79030;DHT22;68511;51.146;7.012;2023-11-19T01:00:50;15.20;61.80
79030;DHT22;68511;51.146;7.012;2023-11-19T01:01:51;15.20;61.90
79030;DHT22;68511;51.146;7.012;2023-11-19T01:02:51;15.20;61.90
79030;DHT22;68511;51.146;7.012;2023-11-19T01:03:52;15.20;61.90
79030;DHT22;68511;51.146;7.012;2023-11-19T01:04:52;15.20;61.90
79030;DHT22;68511;51.146;7.012;2023-11-19T01:05:52;15.20;61.90
79030;DHT22;68511;51.146;7.012;2023-11-19T01:06:53;15.20;61.90
79030;DHT22;68511;51.146;7.012;2023-11-19T01:07:54;15.20;61.90
79030;DHT22;68511;51.146;7.012;2023-11-19T01:08:55;15.20;61.90
79030;DHT22;68511;51.146;7.012;2023-11-19T01:09:57;15.20;61.90
79030;DHT22;68511;51.146;7.012;2023-11-19T01:10:57;15.20;61.90
79030;DHT22;68511;51.146;7.012;2023-11-19T01:11:58;15.20;61.90
79030;DHT22;68511;51.146;7.012;2023-11-19T01:13:00;15.20;61.90
79030;DHT22;68511;51.146;7.012;2023-11-19T01:14:00;15.20;61.80
79030;DHT22;68511;51.146;7.012;2023-11-19T01:15:01;15.20;61.90
79030;DHT22;68511;51.146;7.012;2023-11-19T01:16:01;15.20;61.90
79030;DHT22;68511;51.146;7.012;2023-11-19T01:17:02;15.20;61.90
79030;DHT22;68511;51.146;7.012;2023-11-19T01:18:03;15.20;62.00
79030;DHT22;68511;51.146;7.012;2023-11-19T01:19:05;15.20;62.00
79030;DHT22;68511;51.146;7.012;2023-11-19T01:20:05;15.20;61.90
79030;DHT22;68511;51.146;7.012;2023-11-19T01:21:06;15.20;62.00
79030;DHT22;68511;51.146;7.012;2023-11-19T01:22:07;15.20;62.00
79030;DHT22;68511;51.146;7.012;2023-11-19T01:23:07;15.20;61.90
79030;DHT22;68511;51.146;7.012;2023-11-19T01:24:08;15.20;62.00
79030;DHT22;68511;51.146;7.012;2023-11-19T01:25:10;15.20;62.00
79030;DHT22;68511;51.146;7.012;2023-11-19T01:26:10;15.20;62.00
79030;DHT22;68511;51.146;7.012;2023-11-19T01:27:11;15.20;62.00
79030;DHT22;68511;51.146;7.012;2023-11-19T01:28:11;15.20;62.00
79030;DHT22;68511;51.146;7.012;2023-11-19T01:29:12;15.20;62.00
79030;DHT22;68511;51.146;7.012;2023-11-19T01:30:15;15.10;61.90
79030;DHT22;68511;51.146;7.012;2023-11-19T01:31:16;15.20;62.00
79030;DHT22;68511;51.146;7.012;2023-11-19T01:32:16;15.10;61.90
79030;DHT22;68511;51.146;7.012;2023-11-19T01:33:17;15.10;61.90
79030;DHT22;68511;51.146;7.012;2023-11-19T01:34:17;15.20;62.00
79030;DHT22;68511;51.146;7.012;2023-11-19T01:35:18;15.20;62.00
79030;DHT22;68511;51.146;7.012;2023-11-19T01:36:18;15.10;61.80
79030;DHT22;68511;51.146;7.012;2023-11-19T01:37:19;15.20;62.00
79030;DHT22;68511;51.146;7.012;2023-11-19T01:38:19;15.20;62.00
79030;DHT22;68511;51.146;7.012;2023-11-19T01:39:19;15.20;62.00
79030;DHT22;68511;51.146;7.012;2023-11-19T01:40:21;15.20;62.00
79030;DHT22;68511;51.146;7.012;2023-11-19T01:41:21;15.10;61.80
79030;DHT22;68511;51.146;7.012;2023-11-19T01:42:22;15.10;61.90
79030;DHT22;68511;51.146;7.012;2023-11-19T01:43:34;15.10;61.90
79030;DHT22;68511;51.146;7.012;2023-11-19T01:44:35;15.20;62.00
79030;DHT22;68511;51.146;7.012;2023-11-19T01:45:35;15.20;62.00
79030;DHT22;68511;51.146;7.012;2023-11-19T01:46:36;15.20;62.00
79030;DHT22;68511;51.146;7.012;2023-11-19T01:47:36;15.20;62.00
79030;DHT22;68511;51.146;7.012;2023-11-19T01:48:40;15.20;62.00
79030;DHT22;68511;51.146;7.012;2023-11-19T01:49:41;15.10;61.90
79030;DHT22;68511;51.146;7.012;2023-11-19T01:50:41;15.20;62.00
79030;DHT22;68511;51.146;7.012;2023-11-19T01:51:42;15.20;62.00
79030;DHT22;68511;51.146;7.012;2023-11-19T01:52:42;15.20;62.00
79030;DHT22;68511;51.146;7.012;2023-11-19T01:53:43;15.10;61.90
79030;DHT22;68511;51.146;7.012;2023-11-19T01:54:44;15.10;61.90
79030;DHT22;68511;51.146;7.012;2023-11-19T01:55:48;15.20;62.00
79030;DHT22;68511;51.146;7.012;2023-11-19T01:56:49;15.10;62.00
79030;DHT22;68511;51.146;7.012;2023-11-19T01:57:49;15.20;62.00
79030;DHT22;68511;51.146;7.012;2023-11-19T01:58:50;15.10;61.90
79030;DHT22;68511;51.146;7.012;2023-11-19T01:59:51;15.20;62.00
79030;DHT22;68511;51.146;7.012;2023-11-19T02:00:52;15.20;62.00
79030;DHT22;68511;51.146;7.012;2023-11-19T02:01:54;15.20;62.00
79030;DHT22;68511;51.146;7.012;2023-11-19T02:02:54;15.20;62.00
79030;DHT22;68511;51.146;7.012;2023-11-19T02:03:55;15.20;62.00
79030;DHT22;68511;51.146;7.012;2023-11-19T02:04:58;15.20;62.00
79030;DHT22;68511;51.146;7.012;2023-11-19T02:06:02;15.20;62.00
79030;DHT22;68511;51.146;7.012;2023-11-19T02:07:03;15.20;62.00
79030;DHT22;68511;51.146;7.012;2023-11-19T02:08:04;15.20;62.00
79030;DHT22;68511;51.146;7.012;2023-11-19T02:09:04;15.20;62.00
79030;DHT22;68511;51.146;7.012;2023-11-19T02:10:07;15.20;62.00
79030;DHT22;68511;51.146;7.012;2023-11-19T02:11:13;15.20;62.00
79030;DHT22;68511;51.146;7.012;2023-11-19T02:12:13;15.20;62.00
79030;DHT22;68511;51.146;7.012;2023-11-19T02:13:14;15.20;62.00
79030;DHT22;68511;51.146;7.012;2023-11-19T02:14:14;15.20;62.00
79030;DHT22;68511;51.146;7.012;2023-11-19T02:15:15;15.10;61.90
79030;DHT22;68511;51.146;7.012;2023-11-19T02:16:19;15.20;62.00
79030;DHT22;68511;51.146;7.012;2023-11-19T02:17:28;15.10;62.70
79030;DHT22;68511;51.146;7.012;2023-11-19T02:18:29;15.10;62.00
79030;DHT22;68511;51.146;7.012;2023-11-19T02:19:30;15.10;62.00
79030;DHT22;68511;51.146;7.012;2023-11-19T02:20:30;15.20;62.10
79030;DHT22;68511;51.146;7.012;2023-11-19T02:21:32;15.10;61.90
79030;DHT22;68511;51.146;7.012;2023-11-19T02:22:32;15.10;61.90
79030;DHT22;68511;51.146;7.012;2023-11-19T02:23:33;15.10;62.00
79030;DHT22;68511;51.146;7.012;2023-11-19T02:24:33;15.10;62.00
79030;DHT22;68511;51.146;7.012;2023-11-19T02:25:34;15.10;62.00
79030;DHT22;68511;51.146;7.012;2023-11-19T02:26:47;15.10;62.00
79030;DHT22;68511;51.146;7.012;2023-11-19T02:27:53;15.10;62.00
79030;DHT22;68511;51.146;7.012;2023-11-19T02:28:57;15.10;62.00
79030;DHT22;68511;51.146;7.012;2023-11-19T02:29:58;15.10;62.00
79030;DHT22;68511;51.146;7.012;2023-11-19T02:30:58;15.10;62.00
79030;DHT22;68511;51.146;7.012;2023-11-19T02:31:59;15.10;62.00
79030;DHT22;68511;51.146;7.012;2023-11-19T02:33:00;15.10;62.00
79030;DHT22;68511;51.146;7.012;2023-11-19T02:34:05;15.10;62.00
79030;DHT22;68511;51.146;7.012;2023-11-19T02:35:06;15.10;62.00
79030;DHT22;68511;51.146;7.012;2023-11-19T02:36:08;15.10;62.00
79030;DHT22;68511;51.146;7.012;2023-11-19T02:37:08;15.10;62.00
79030;DHT22;68511;51.146;7.012;2023-11-19T02:38:10;15.10;62.00
79030;DHT22;68511;51.146;7.012;2023-11-19T02:39:11;15.10;62.00
79030;DHT22;68511;51.146;7.012;2023-11-19T02:40:13;15.10;62.10
79030;DHT22;68511;51.146;7.012;2023-11-19T02:41:13;15.10;62.00
79030;DHT22;68511;51.146;7.012;2023-11-19T02:42:14;15.10;62.00
79030;DHT22;68511;51.146;7.012;2023-11-19T02:43:15;15.10;62.10
79030;DHT22;68511;51.146;7.012;2023-11-19T02:44:16;15.10;62.00
79030;DHT22;68511;51.146;7.012;2023-11-19T02:45:16;15.10;62.10
79030;DHT22;68511;51.146;7.012;2023-11-19T02:46:17;15.10;62.10
79030;DHT22;68511;51.146;7.012;2023-11-19T02:47:18;15.10;62.00
79030;DHT22;68511;51.146;7.012;2023-11-19T02:48:21;15.10;62.10
79030;DHT22;68511;51.146;7.012;2023-11-19T02:49:22;15.10;62.10
79030;DHT22;68511;51.146;7.012;2023-11-19T02:50:22;15.10;62.10
79030;DHT22;68511;51.146;7.012;2023-11-19T02:51:26;15.10;62.10
79030;DHT22;68511;51.146;7.012;2023-11-19T02:52:28;15.10;62.10
79030;DHT22;68511;51.146;7.012;2023-11-19T02:53:28;15.10;62.10
79030;DHT22;68511;51.146;7.012;2023-11-19T02:54:29;15.10;62.10
79030;DHT22;68511;51.146;7.012;2023-11-19T02:55:29;15.10;62.10
79030;DHT22;68511;51.146;7.012;2023-11-19T02:56:36;15.10;62.10
79030;DHT22;68511;51.146;7.012;2023-11-19T02:57:39;15.10;62.10
79030;DHT22;68511;51.146;7.012;2023-11-19T02:58:46;15.10;62.10
79030;DHT22;68511;51.146;7.012;2023-11-19T02:59:47;15.10;62.10
79030;DHT22;68511;51.146;7.012;2023-11-19T03:00:48;15.10;62.10
79030;DHT22;68511;51.146;7.012;2023-11-19T03:01:57;15.10;62.10
79030;DHT22;68511;51.146;7.012;2023-11-19T03:02:57;15.10;62.20
79030;DHT22;68511;51.146;7.012;2023-11-19T03:04:05;15.10;62.10
79030;DHT22;68511;51.146;7.012;2023-11-19T03:05:06;15.10;62.20
79030;DHT22;68511;51.146;7.012;2023-11-19T03:06:07;15.10;62.10
79030;DHT22;68511;51.146;7.012;2023-11-19T03:07:09;15.10;62.10
79030;DHT22;68511;51.146;7.012;2023-11-19T03:08:10;15.10;62.10
79030;DHT22;68511;51.146;7.012;2023-11-19T03:09:10;15.10;62.20
79030;DHT22;68511;51.146;7.012;2023-11-19T03:10:11;15.10;62.10
79030;DHT22;68511;51.146;7.012;2023-11-19T03:11:14;15.10;62.10
79030;DHT22;68511;51.146;7.012;2023-11-19T03:12:15;15.10;62.10
79030;DHT22;68511;51.146;7.012;2023-11-19T03:13:15;15.10;62.10
79030;DHT22;68511;51.146;7.012;2023-11-19T03:14:17;15.10;62.10
79030;DHT22;68511;51.146;7.012;2023-11-19T03:15:18;15.10;62.20
79030;DHT22;68511;51.146;7.012;2023-11-19T03:16:19;15.10;62.10
79030;DHT22;68511;51.146;7.012;2023-11-19T03:17:19;15.10;62.10
79030;DHT22;68511;51.146;7.012;2023-11-19T03:18:20;15.10;62.10
79030;DHT22;68511;51.146;7.012;2023-11-19T03:19:20;15.10;62.10
79030;DHT22;68511;51.146;7.012;2023-11-19T03:20:21;15.10;62.10
79030;DHT22;68511;51.146;7.012;2023-11-19T03:21:27;15.10;62.10
79030;DHT22;68511;51.146;7.012;2023-11-19T03:22:27;15.10;62.10
79030;DHT22;68511;51.146;7.012;2023-11-19T03:23:28;15.10;62.20
79030;DHT22;68511;51.146;7.012;2023-11-19T03:24:28;15.10;62.10
79030;DHT22;68511;51.146;7.012;2023-11-19T03:25:29;15.10;62.10
79030;DHT22;68511;51.146;7.012;2023-11-19T03:26:36;15.10;62.10
79030;DHT22;68511;51.146;7.012;2023-11-19T03:27:37;15.10;62.10
79030;DHT22;68511;51.146;7.012;2023-11-19T03:28:47;15.20;62.20
79030;DHT22;68511;51.146;7.012;2023-11-19T03:29:47;15.10;62.10
79030;DHT22;68511;51.146;7.012;2023-11-19T03:30:48;15.10;62.10
79030;DHT22;68511;51.146;7.012;2023-11-19T03:31:49;15.10;62.10
79030;DHT22;68511;51.146;7.012;2023-11-19T03:32:50;15.10;62.20
79030;DHT22;68511;51.146;7.012;2023-11-19T03:33:50;15.10;62.10
79030;DHT22;68511;51.146;7.012;2023-11-19T03:34:51;15.10;62.10
79030;DHT22;68511;51.146;7.012;2023-11-19T03:35:52;15.10;62.10
79030;DHT22;68511;51.146;7.012;2023-11-19T03:36:52;15.10;62.10
79030;DHT22;68511;51.146;7.012;2023-11-19T03:37:53;15.10;62.10
79030;DHT22;68511;51.146;7.012;2023-11-19T03:38:54;15.10;62.10
79030;DHT22;68511;51.146;7.012;2023-11-19T03:39:54;15.10;62.20
79030;DHT22;68511;51.146;7.012;2023-11-19T03:40:55;15.10;62.10
79030;DHT22;68511;51.146;7.012;2023-11-19T03:41:55;15.10;62.10
79030;DHT22;68511;51.146;7.012;2023-11-19T03:42:56;15.10;62.10
79030;DHT22;68511;51.146;7.012;2023-11-19T03:43:58;15.10;62.10
79030;DHT22;68511;51.146;7.012;2023-11-19T03:44:58;15.10;62.10
79030;DHT22;68511;51.146;7.012;2023-11-19T03:45:59;15.10;62.10
79030;DHT22;68511;51.146;7.012;2023-11-19T03:47:00;15.10;62.10
79030;DHT22;68511;51.146;7.012;2023-11-19T03:48:00;15.20;62.20
79030;DHT22;68511;51.146;7.012;2023-11-19T03:49:01;15.10;62.10
79030;DHT22;68511;51.146;7.012;2023-11-19T03:50:02;15.10;62.10
79030;DHT22;68511;51.146;7.012;2023-11-19T03:51:03;15.20;62.20
79030;DHT22;68511;51.146;7.012;2023-11-19T03:52:03;15.10;62.10
79030;DHT22;68511;51.146;7.012;2023-11-19T03:53:05;15.10;62.10
79030;DHT22;68511;51.146;7.012;2023-11-19T03:54:05;15.10;62.10
79030;DHT22;68511;51.146;7.012;2023-11-19T03:55:07;15.10;62.10
79030;DHT22;68511;51.146;7.012;2023-11-19T03:56:09;15.10;62.20
79030;DHT22;68511;51.146;7.012;2023-11-19T03:57:10;15.10;62.10
79030;DHT22;68511;51.146;7.012;2023-11-19T03:58:12;15.10;62.10
79030;DHT22;68511;51.146;7.012;2023-11-19T03:59:12;15.10;62.20
79030;DHT22;68511;51.146;7.012;2023-11-19T04:00:13;15.10;62.20
79030;DHT22;68511;51.146;7.012;2023-11-19T04:01:14;15.10;62.20
79030;DHT22;68511;51.146;7.012;2023-11-19T04:02:15;15.10;62.20
79030;DHT22;68511;51.146;7.012;2023-11-19T04:03:16;15.10;62.20
79030;DHT22;68511;51.146;7.012;2023-11-19T04:04:16;15.10;62.20
79030;DHT22;68511;51.146;7.012;2023-11-19T04:05:16;15.10;62.20
79030;DHT22;68511;51.146;7.012;2023-11-19T04:06:19;15.10;62.20
79030;DHT22;68511;51.146;7.012;2023-11-19T04:07:19;15.10;62.20
79030;DHT22;68511;51.146;7.012;2023-11-19T04:08:20;15.10;62.20
79030;DHT22;68511;51.146;7.012;2023-11-19T04:09:21;15.10;62.20
79030;DHT22;68511;51.146;7.012;2023-11-19T04:10:21;15.10;62.20
79030;DHT22;68511;51.146;7.012;2023-11-19T04:11:22;15.10;62.20
79030;DHT22;68511;51.146;7.012;2023-11-19T04:12:23;15.10;62.20
79030;DHT22;68511;51.146;7.012;2023-11-19T04:13:23;15.10;62.10
79030;DHT22;68511;51.146;7.012;2023-11-19T04:14:24;15.10;62.20
79030;DHT22;68511;51.146;7.012;2023-11-19T04:15:25;15.10;62.20
79030;DHT22;68511;51.146;7.012;2023-11-19T04:16:26;15.10;62.20
79030;DHT22;68511;51.146;7.012;2023-11-19T04:17:26;15.10;62.20
79030;DHT22;68511;51.146;7.012;2023-11-19T04:18:27;15.10;62.20
79030;DHT22;68511;51.146;7.012;2023-11-19T04:19:28;15.10;62.20
79030;DHT22;68511;51.146;7.012;2023-11-19T04:20:29;15.10;62.20
79030;DHT22;68511;51.146;7.012;2023-11-19T04:21:29;15.10;62.20
79030;DHT22;68511;51.146;7.012;2023-11-19T04:22:29;15.10;62.20
79030;DHT22;68511;51.146;7.012;2023-11-19T04:23:30;15.10;62.20
79030;DHT22;68511;51.146;7.012;2023-11-19T04:24:31;15.10;62.20
79030;DHT22;68511;51.146;7.012;2023-11-19T04:25:32;15.10;62.20
79030;DHT22;68511;51.146;7.012;2023-11-19T04:26:32;15.10;62.20
79030;DHT22;68511;51.146;7.012;2023-11-19T04:27:33;15.10;62.20
79030;DHT22;68511;51.146;7.012;2023-11-19T04:28:33;15.10;62.20
79030;DHT22;68511;51.146;7.012;2023-11-19T04:29:33;15.10;62.20
79030;DHT22;68511;51.146;7.012;2023-11-19T04:30:34;15.10;62.30
79030;DHT22;68511;51.146;7.012;2023-11-19T04:31:35;15.10;62.30
79030;DHT22;68511;51.146;7.012;2023-11-19T04:32:36;15.10;62.20
79030;DHT22;68511;51.146;7.012;2023-11-19T04:33:36;15.10;62.20
79030;DHT22;68511;51.146;7.012;2023-11-19T04:34:37;15.10;62.20
79030;DHT22;68511;51.146;7.012;2023-11-19T04:35:37;15.10;62.20
79030;DHT22;68511;51.146;7.012;2023-11-19T04:36:38;15.10;62.20
79030;DHT22;68511;51.146;7.012;2023-11-19T04:37:39;15.10;62.20
79030;DHT22;68511;51.146;7.012;2023-11-19T04:38:39;15.10;62.20
79030;DHT22;68511;51.146;7.012;2023-11-19T04:39:40;15.10;62.20
79030;DHT22;68511;51.146;7.012;2023-11-19T04:40:40;15.10;62.20
79030;DHT22;68511;51.146;7.012;2023-11-19T04:41:48;15.10;62.20
79030;DHT22;68511;51.146;7.012;2023-11-19T04:42:49;15.10;62.20
79030;DHT22;68511;51.146;7.012;2023-11-19T04:43:49;15.10;62.20
79030;DHT22;68511;51.146;7.012;2023-11-19T04:44:50;15.10;62.20
79030;DHT22;68511;51.146;7.012;2023-11-19T04:45:50;15.10;62.20
79030;DHT22;68511;51.146;7.012;2023-11-19T04:46:51;15.10;62.20
79030;DHT22;68511;51.146;7.012;2023-11-19T04:47:51;15.10;62.20
79030;DHT22;68511;51.146;7.012;2023-11-19T04:48:52;15.10;62.20
79030;DHT22;68511;51.146;7.012;2023-11-19T04:49:52;15.10;62.20
79030;DHT22;68511;51.146;7.012;2023-11-19T04:50:53;15.10;62.20
79030;DHT22;68511;51.146;7.012;2023-11-19T04:51:54;15.10;62.20
79030;DHT22;68511;51.146;7.012;2023-11-19T04:52:54;15.10;62.20
79030;DHT22;68511;51.146;7.012;2023-11-19T04:53:56;15.10;62.20
79030;DHT22;68511;51.146;7.012;2023-11-19T04:54:56;15.10;62.20
79030;DHT22;68511;51.146;7.012;2023-11-19T04:55:57;15.10;62.20
79030;DHT22;68511;51.146;7.012;2023-11-19T04:56:57;15.10;62.20
79030;DHT22;68511;51.146;7.012;2023-11-19T04:57:58;15.10;62.20
79030;DHT22;68511;51.146;7.012;2023-11-19T04:58:59;15.10;62.20
79030;DHT22;68511;51.146;7.012;2023-11-19T05:00:00;15.10;62.20
79030;DHT22;68511;51.146;7.012;2023-11-19T05:01:01;15.10;62.20
79030;DHT22;68511;51.146;7.012;2023-11-19T05:02:01;15.10;62.20
79030;DHT22;68511;51.146;7.012;2023-11-19T05:03:01;15.10;62.20
79030;DHT22;68511;51.146;7.012;2023-11-19T05:04:02;15.10;62.20
79030;DHT22;68511;51.146;7.012;2023-11-19T05:05:03;15.10;62.20
79030;DHT22;68511;51.146;7.012;2023-11-19T05:06:05;15.10;62.20
79030;DHT22;68511;51.146;7.012;2023-11-19T05:07:05;15.10;62.20
79030;DHT22;68511;51.146;7.012;2023-11-19T05:08:07;15.10;62.20
79030;DHT22;68511;51.146;7.012;2023-11-19T05:09:07;15.10;62.30
79030;DHT22;68511;51.146;7.012;2023-11-19T05:10:08;15.10;62.30
79030;DHT22;68511;51.146;7.012;2023-11-19T05:11:08;15.10;62.30
79030;DHT22;68511;51.146;7.012;2023-11-19T05:12:12;15.10;62.20
79030;DHT22;68511;51.146;7.012;2023-11-19T05:13:12;15.10;62.20
79030;DHT22;68511;51.146;7.012;2023-11-19T05:14:13;15.10;62.30
79030;DHT22;68511;51.146;7.012;2023-11-19T05:15:13;15.10;62.20
79030;DHT22;68511;51.146;7.012;2023-11-19T05:16:14;15.10;62.30
79030;DHT22;68511;51.146;7.012;2023-11-19T05:17:15;15.10;63.00
79030;DHT22;68511;51.146;7.012;2023-11-19T05:18:18;15.20;62.40
79030;DHT22;68511;51.146;7.012;2023-11-19T05:19:18;15.10;62.20
79030;DHT22;68511;51.146;7.012;2023-11-19T05:20:19;15.10;62.30
79030;DHT22;68511;51.146;7.012;2023-11-19T05:21:19;15.10;62.20
79030;DHT22;68511;51.146;7.012;2023-11-19T05:22:20;15.10;62.20
79030;DHT22;68511;51.146;7.012;2023-11-19T05:23:20;15.10;62.20
79030;DHT22;68511;51.146;7.012;2023-11-19T05:24:21;15.20;62.30
79030;DHT22;68511;51.146;7.012;2023-11-19T05:25:22;15.10;62.20
79030;DHT22;68511;51.146;7.012;2023-11-19T05:26:23;15.10;62.20
79030;DHT22;68511;51.146;7.012;2023-11-19T05:27:23;15.10;62.20
79030;DHT22;68511;51.146;7.012;2023-11-19T05:28:24;15.10;62.20
79030;DHT22;68511;51.146;7.012;2023-11-19T05:29:26;15.10;62.30
79030;DHT22;68511;51.146;7.012;2023-11-19T05:30:27;15.20;62.40
79030;DHT22;68511;51.146;7.012;2023-11-19T05:31:27;15.10;62.30
79030;DHT22;68511;51.146;7.012;2023-11-19T05:32:28;15.10;62.30
79030;DHT22;68511;51.146;7.012;2023-11-19T05:33:28;15.10;62.30
79030;DHT22;68511;51.146;7.012;2023-11-19T05:34:29;15.10;62.30
79030;DHT22;68511;51.146;7.012;2023-11-19T05:35:29;15.10;62.30
79030;DHT22;68511;51.146;7.012;2023-11-19T05:36:30;15.10;62.20
79030;DHT22;68511;51.146;7.012;2023-11-19T05:37:30;15.10;62.30
79030;DHT22;68511;51.146;7.012;2023-11-19T05:38:31;15.10;62.30
79030;DHT22;68511;51.146;7.012;2023-11-19T05:39:31;15.10;62.30
79030;DHT22;68511;51.146;7.012;2023-11-19T05:40:32;15.10;62.30
79030;DHT22;68511;51.146;7.012;2023-11-19T05:41:33;15.10;62.20
79030;DHT22;68511;51.146;7.012;2023-11-19T05:42:33;15.10;62.30
79030;DHT22;68511;51.146;7.012;2023-11-19T05:43:34;15.10;62.20
79030;DHT22;68511;51.146;7.012;2023-11-19T05:44:34;15.10;62.20
79030;DHT22;68511;51.146;7.012;2023-11-19T05:45:35;15.10;62.20
79030;DHT22;68511;51.146;7.012;2023-11-19T05:46:35;15.10;62.20
79030;DHT22;68511;51.146;7.012;2023-11-19T05:47:40;15.10;62.20
79030;DHT22;68511;51.146;7.012;2023-11-19T05:48:41;15.10;62.20
79030;DHT22;68511;51.146;7.012;2023-11-19T05:49:41;15.10;62.30
79030;DHT22;68511;51.146;7.012;2023-11-19T05:50:42;15.10;62.20
79030;DHT22;68511;51.146;7.012;2023-11-19T05:51:42;15.10;62.30
79030;DHT22;68511;51.146;7.012;2023-11-19T05:52:43;15.10;62.30
79030;DHT22;68511;51.146;7.012;2023-11-19T05:53:44;15.10;62.20
79030;DHT22;68511;51.146;7.012;2023-11-19T05:54:45;15.20;62.30
79030;DHT22;68511;51.146;7.012;2023-11-19T05:55:48;15.10;62.20
79030;DHT22;68511;51.146;7.012;2023-11-19T05:56:57;15.20;62.30
79030;DHT22;68511;51.146;7.012;2023-11-19T05:57:58;15.20;62.40
79030;DHT22;68511;51.146;7.012;2023-11-19T05:59:01;15.10;62.30
79030;DHT22;68511;51.146;7.012;2023-11-19T06:00:03;15.10;62.30
79030;DHT22;68511;51.146;7.012;2023-11-19T06:01:06;15.10;62.30
79030;DHT22;68511;51.146;7.012;2023-11-19T06:02:07;15.10;62.40
79030;DHT22;68511;51.146;7.012;2023-11-19T06:03:08;15.10;62.40
79030;DHT22;68511;51.146;7.012;2023-11-19T06:04:08;15.10;62.30
79030;DHT22;68511;51.146;7.012;2023-11-19T06:05:09;15.10;62.40
79030;DHT22;68511;51.146;7.012;2023-11-19T06:06:10;15.10;62.40
79030;DHT22;68511;51.146;7.012;2023-11-19T06:07:11;15.10;62.40
79030;DHT22;68511;51.146;7.012;2023-11-19T06:08:12;15.10;62.40
79030;DHT22;68511;51.146;7.012;2023-11-19T06:09:13;15.10;62.40
79030;DHT22;68511;51.146;7.012;2023-11-19T06:10:13;15.10;62.40
79030;DHT22;68511;51.146;7.012;2023-11-19T06:11:16;15.10;62.40
79030;DHT22;68511;51.146;7.012;2023-11-19T06:12:20;15.10;62.40
79030;DHT22;68511;51.146;7.012;2023-11-19T06:13:20;15.10;62.40
79030;DHT22;68511;51.146;7.012;2023-11-19T06:14:22;15.10;62.40
79030;DHT22;68511;51.146;7.012;2023-11-19T06:15:24;15.10;62.40
79030;DHT22;68511;51.146;7.012;2023-11-19T06:16:25;15.10;62.40
79030;DHT22;68511;51.146;7.012;2023-11-19T06:17:25;15.10;62.40
79030;DHT22;68511;51.146;7.012;2023-11-19T06:18:26;15.10;62.40
79030;DHT22;68511;51.146;7.012;2023-11-19T06:19:26;15.10;62.40
79030;DHT22;68511;51.146;7.012;2023-11-19T06:20:27;15.10;62.40
79030;DHT22;68511;51.146;7.012;2023-11-19T06:21:30;15.10;62.30
79030;DHT22;68511;51.146;7.012;2023-11-19T06:22:30;15.10;62.40
79030;DHT22;68511;51.146;7.012;2023-11-19T06:23:31;15.10;62.40
79030;DHT22;68511;51.146;7.012;2023-11-19T06:24:31;15.10;62.40
79030;DHT22;68511;51.146;7.012;2023-11-19T06:25:32;15.10;62.40
79030;DHT22;68511;51.146;7.012;2023-11-19T06:26:33;15.10;62.40